createdAt,value
2017-08-21T00:02:18.290Z,16.20
2017-08-21T00:04:45.564Z,16.20
2017-08-21T00:07:11.859Z,16.20
2017-08-21T00:09:38.129Z,16.20
2017-08-21T00:12:05.411Z,16.20
2017-08-21T00:14:31.708Z,16.20
2017-08-21T00:16:57.985Z,16.20
2017-08-21T00:19:24.275Z,16.10
2017-08-21T00:21:50.598Z,16.00
2017-08-21T00:24:16.886Z,16.00
2017-08-21T00:26:43.177Z,16.00
2017-08-21T00:29:09.463Z,16.00
2017-08-21T00:31:35.743Z,16.00
2017-08-21T00:34:02.066Z,16.00
2017-08-21T00:36:28.345Z,16.00
2017-08-21T00:38:54.633Z,16.10
2017-08-21T00:41:20.932Z,16.10
2017-08-21T00:43:47.221Z,15.90
2017-08-21T00:46:13.539Z,15.80
2017-08-21T00:48:40.173Z,15.70
2017-08-21T00:51:06.477Z,15.80
2017-08-21T00:53:32.794Z,15.70
2017-08-21T00:55:59.596Z,15.60
2017-08-21T00:58:25.868Z,15.70
2017-08-21T01:00:52.190Z,15.80
2017-08-21T01:03:18.477Z,15.80
2017-08-21T01:05:44.795Z,15.90
2017-08-21T01:08:11.055Z,15.70
2017-08-21T01:10:37.337Z,15.70
2017-08-21T01:13:03.604Z,15.50
2017-08-21T01:15:30.170Z,15.50
2017-08-21T01:17:56.447Z,15.50
2017-08-21T01:20:22.727Z,15.50
2017-08-21T01:22:49.013Z,15.50
2017-08-21T01:25:15.277Z,15.40
2017-08-21T01:27:41.542Z,15.30
2017-08-21T01:30:07.778Z,15.30
2017-08-21T01:32:34.284Z,15.30
2017-08-21T01:35:00.557Z,15.30
2017-08-21T01:37:26.831Z,15.30
2017-08-21T01:39:53.120Z,15.30
2017-08-21T01:42:19.733Z,15.30
2017-08-21T01:44:46.009Z,15.30
2017-08-21T01:47:12.286Z,15.20
2017-08-21T01:49:38.567Z,15.10
2017-08-21T01:52:04.837Z,15.10
2017-08-21T01:54:31.155Z,15.10
2017-08-21T01:56:57.421Z,15.10
2017-08-21T01:59:23.705Z,15.00
2017-08-21T02:01:49.968Z,15.00
2017-08-21T02:04:16.246Z,15.10
2017-08-21T02:06:42.514Z,15.20
2017-08-21T02:09:08.810Z,15.20
2017-08-21T02:11:35.099Z,15.30
2017-08-21T02:14:01.382Z,15.30
2017-08-21T02:16:27.656Z,15.30
2017-08-21T02:18:53.936Z,15.30
2017-08-21T02:21:20.221Z,15.30
2017-08-21T02:23:46.528Z,15.30
2017-08-21T02:26:12.809Z,15.40
2017-08-21T02:28:39.077Z,15.40
2017-08-21T02:31:05.375Z,15.40
2017-08-21T02:33:31.698Z,15.30
2017-08-21T02:35:57.975Z,15.30
2017-08-21T02:38:36.585Z,15.30
2017-08-21T02:41:02.858Z,15.30
2017-08-21T02:43:29.577Z,15.40
2017-08-21T02:45:55.871Z,15.40
2017-08-21T02:48:22.147Z,15.50
2017-08-21T02:50:48.438Z,15.60
2017-08-21T02:53:14.746Z,15.50
2017-08-21T02:55:41.048Z,15.60
2017-08-21T02:58:07.327Z,15.50
2017-08-21T03:00:33.909Z,15.20
2017-08-21T03:03:00.202Z,15.20
2017-08-21T03:05:26.481Z,15.10
2017-08-21T03:07:52.802Z,15.10
2017-08-21T03:10:19.090Z,15.30
2017-08-21T03:12:45.385Z,15.40
2017-08-21T03:15:11.666Z,15.40
2017-08-21T03:17:37.937Z,15.40
2017-08-21T03:20:04.193Z,15.50
2017-08-21T03:22:30.505Z,15.50
2017-08-21T03:24:56.785Z,15.50
2017-08-21T03:27:23.057Z,15.50
2017-08-21T03:29:49.352Z,15.40
2017-08-21T03:32:15.638Z,15.40
2017-08-21T03:34:41.933Z,15.40
2017-08-21T03:37:08.207Z,15.40
2017-08-21T03:39:34.489Z,15.20
2017-08-21T03:42:00.792Z,15.30
2017-08-21T03:44:27.668Z,15.30
2017-08-21T03:46:54.541Z,15.30
2017-08-21T03:49:20.827Z,15.30
2017-08-21T03:51:47.116Z,15.30
2017-08-21T03:54:13.408Z,15.20
2017-08-21T03:56:39.673Z,15.30
2017-08-21T03:59:06.461Z,15.40
2017-08-21T04:01:33.656Z,15.40
2017-08-21T04:03:59.903Z,15.50
2017-08-21T04:06:26.163Z,15.50
2017-08-21T04:08:52.449Z,15.60
2017-08-21T04:11:18.731Z,15.60
2017-08-21T04:13:45.029Z,15.70
2017-08-21T04:16:11.295Z,15.70
2017-08-21T04:18:37.603Z,15.60
2017-08-21T04:21:03.902Z,15.50
2017-08-21T04:23:30.197Z,15.50
2017-08-21T04:25:56.480Z,15.60
2017-08-21T04:28:22.764Z,15.50
2017-08-21T04:30:49.057Z,15.50
2017-08-21T04:33:15.319Z,15.40
2017-08-21T04:35:41.627Z,15.40
2017-08-21T04:38:07.897Z,15.40
2017-08-21T04:40:34.182Z,15.50
2017-08-21T04:43:00.453Z,15.60
2017-08-21T04:45:26.742Z,15.70
2017-08-21T04:47:53.027Z,15.60
2017-08-21T04:50:19.322Z,15.50
2017-08-21T04:52:45.632Z,15.60
2017-08-21T04:55:11.897Z,15.50
2017-08-21T04:57:38.220Z,15.60
2017-08-21T05:00:04.511Z,15.70
2017-08-21T05:02:31.112Z,15.80
2017-08-21T05:04:57.353Z,15.80
2017-08-21T05:07:23.625Z,15.80
2017-08-21T05:09:49.907Z,15.80
2017-08-21T05:12:16.167Z,15.90
2017-08-21T05:14:42.453Z,16.00
2017-08-21T05:17:08.741Z,16.10
2017-08-21T05:19:35.037Z,16.10
2017-08-21T05:22:01.330Z,16.10
2017-08-21T05:24:27.628Z,16.20
2017-08-21T05:26:53.885Z,16.40
2017-08-21T05:29:20.175Z,16.50
2017-08-21T05:31:46.442Z,16.50
2017-08-21T05:34:12.717Z,16.50
2017-08-21T05:36:38.987Z,16.60
2017-08-21T05:39:05.569Z,16.60
2017-08-21T05:41:31.846Z,16.70
2017-08-21T05:43:58.159Z,16.70
2017-08-21T05:46:24.485Z,16.50
2017-08-21T05:48:51.269Z,16.50
2017-08-21T05:51:17.558Z,16.60
2017-08-21T05:53:43.882Z,16.70
2017-08-21T05:56:10.168Z,16.70
2017-08-21T05:58:36.457Z,16.70
2017-08-21T06:01:03.054Z,16.70
2017-08-21T06:03:29.341Z,16.80
2017-08-21T06:05:55.616Z,17.00
2017-08-21T06:08:21.908Z,17.00
2017-08-21T06:10:48.192Z,17.10
2017-08-21T06:13:14.490Z,17.30
2017-08-21T06:15:40.799Z,17.40
2017-08-21T06:18:07.120Z,17.50
2017-08-21T06:20:33.451Z,17.50
2017-08-21T06:22:59.748Z,17.60
2017-08-21T06:25:26.047Z,17.70
2017-08-21T06:27:52.338Z,17.90
2017-08-21T06:30:18.676Z,18.10
2017-08-21T06:32:44.989Z,18.20
2017-08-21T06:35:11.298Z,18.40
2017-08-21T06:37:37.547Z,18.50
2017-08-21T06:40:03.866Z,18.60
2017-08-21T06:42:30.139Z,18.60
2017-08-21T06:44:56.702Z,18.80
2017-08-21T06:47:22.974Z,19.00
2017-08-21T06:49:49.258Z,19.00
2017-08-21T06:52:15.553Z,19.00
2017-08-21T06:54:41.828Z,19.10
2017-08-21T06:57:08.113Z,19.20
2017-08-21T06:59:34.392Z,19.20
2017-08-21T07:02:00.679Z,19.30
2017-08-21T07:04:26.955Z,19.30
2017-08-21T07:06:53.248Z,19.40
2017-08-21T07:09:19.549Z,19.20
2017-08-21T07:11:45.817Z,19.20
2017-08-21T07:14:12.119Z,18.90
2017-08-21T07:16:38.401Z,18.90
2017-08-21T07:19:04.707Z,19.00
2017-08-21T07:21:30.999Z,19.30
2017-08-21T07:23:57.680Z,19.50
2017-08-21T07:26:23.950Z,19.70
2017-08-21T07:28:50.236Z,19.90
2017-08-21T07:31:16.545Z,20.10
2017-08-21T07:33:42.803Z,20.20
2017-08-21T07:36:09.095Z,20.30
2017-08-21T07:38:36.390Z,20.30
2017-08-21T07:41:02.689Z,20.30
2017-08-21T07:43:28.957Z,20.30
2017-08-21T07:45:55.266Z,20.30
2017-08-21T07:48:21.577Z,20.40
2017-08-21T07:50:47.860Z,20.60
2017-08-21T07:53:14.670Z,20.70
2017-08-21T07:55:40.995Z,20.70
2017-08-21T07:58:07.258Z,20.70
2017-08-21T08:00:33.599Z,20.90
2017-08-21T08:02:59.914Z,21.10
2017-08-21T08:05:26.825Z,21.20
2017-08-21T08:07:53.072Z,21.30
2017-08-21T08:10:20.351Z,21.50
2017-08-21T08:12:49.351Z,21.50
2017-08-21T08:15:18.467Z,21.50
2017-08-21T08:17:45.721Z,21.70
2017-08-21T08:20:12.029Z,21.90
2017-08-21T08:22:39.171Z,21.60
2017-08-21T08:25:05.466Z,21.70
2017-08-21T08:27:34.906Z,21.90
2017-08-21T08:30:02.344Z,22.00
2017-08-21T08:32:28.650Z,22.20
2017-08-21T08:34:54.955Z,22.20
2017-08-21T08:37:21.846Z,22.30
2017-08-21T08:39:50.209Z,22.30
2017-08-21T08:42:16.531Z,22.40
2017-08-21T08:44:43.733Z,22.60
2017-08-21T08:47:10.057Z,22.90
2017-08-21T08:49:36.374Z,23.00
2017-08-21T08:52:02.685Z,23.00
2017-08-21T08:54:30.328Z,22.90
2017-08-21T08:56:57.471Z,22.70
2017-08-21T08:59:23.751Z,22.90
2017-08-21T09:01:50.624Z,23.10
2017-08-21T09:04:17.701Z,23.40
2017-08-21T09:06:50.275Z,23.70
2017-08-21T09:09:16.575Z,23.80
2017-08-21T09:11:44.138Z,24.00
2017-08-21T09:14:13.376Z,24.00
2017-08-21T09:16:41.371Z,23.90
2017-08-21T09:19:08.503Z,24.10
2017-08-21T09:21:34.831Z,24.00
2017-08-21T09:24:01.124Z,24.00
2017-08-21T09:26:27.413Z,24.10
2017-08-21T09:28:53.721Z,24.30
2017-08-21T09:31:22.172Z,24.20
2017-08-21T09:33:48.486Z,24.20
2017-08-21T09:36:14.779Z,24.30
2017-08-21T09:38:41.078Z,24.40
2017-08-21T09:41:07.366Z,24.60
2017-08-21T09:43:34.331Z,24.80
2017-08-21T09:46:01.216Z,25.00
2017-08-21T09:48:27.495Z,25.00
2017-08-21T09:50:54.984Z,25.20
2017-08-21T09:53:23.479Z,24.90
2017-08-21T09:55:50.735Z,24.90
2017-08-21T09:58:17.051Z,24.60
2017-08-21T10:00:44.816Z,24.10
2017-08-21T10:03:11.658Z,24.00
2017-08-21T10:05:37.948Z,23.70
2017-08-21T10:08:07.207Z,23.30
2017-08-21T10:10:34.403Z,23.30
2017-08-21T10:13:01.376Z,23.20
2017-08-21T10:15:27.661Z,23.10
2017-08-21T10:17:53.987Z,23.00
2017-08-21T10:20:20.261Z,23.40
2017-08-21T10:22:46.601Z,23.70
2017-08-21T10:25:12.903Z,23.80
2017-08-21T10:27:40.823Z,24.10
2017-08-21T10:30:08.010Z,24.40
2017-08-21T10:32:34.300Z,24.50
2017-08-21T10:35:01.201Z,24.70
2017-08-21T10:37:28.493Z,24.90
2017-08-21T10:39:54.787Z,25.00
2017-08-21T10:42:21.066Z,25.30
2017-08-21T10:44:47.357Z,25.50
2017-08-21T10:47:13.657Z,25.70
2017-08-21T10:49:40.430Z,25.30
2017-08-21T10:52:07.569Z,25.00
2017-08-21T10:54:35.401Z,24.90
2017-08-21T10:57:01.784Z,24.70
2017-08-21T10:59:28.086Z,24.60
2017-08-21T11:01:58.222Z,24.80
2017-08-21T11:04:24.522Z,24.90
2017-08-21T11:06:52.049Z,24.60
2017-08-21T11:09:18.697Z,24.20
2017-08-21T11:11:45.716Z,24.30
2017-08-21T11:14:12.676Z,24.50
2017-08-21T11:16:40.237Z,24.80
2017-08-21T11:19:07.473Z,25.00
2017-08-21T11:21:35.483Z,25.20
2017-08-21T11:24:01.789Z,26.00
2017-08-21T11:26:28.671Z,26.60
2017-08-21T11:28:56.347Z,27.30
2017-08-21T11:31:22.679Z,27.90
2017-08-21T11:33:48.966Z,28.40
2017-08-21T11:36:16.212Z,28.80
2017-08-21T11:38:43.460Z,29.40
2017-08-21T11:41:10.646Z,30.70
2017-08-21T11:43:36.953Z,31.80
2017-08-21T11:46:03.271Z,32.50
2017-08-21T11:48:30.549Z,33.50
2017-08-21T11:50:56.841Z,34.30
2017-08-21T11:53:23.080Z,36.10
2017-08-21T11:55:49.366Z,37.40
2017-08-21T11:58:15.654Z,37.90
2017-08-21T12:00:41.936Z,38.40
2017-08-21T12:03:08.237Z,38.10
2017-08-21T12:05:34.563Z,38.50
2017-08-21T12:08:00.865Z,38.80
2017-08-21T12:10:27.145Z,39.80
2017-08-21T12:12:53.428Z,41.90
2017-08-21T12:15:19.711Z,44.00
2017-08-21T12:17:46.003Z,45.70
2017-08-21T12:20:12.279Z,45.60
2017-08-21T12:22:38.580Z,44.20
2017-08-21T12:25:04.853Z,45.00
2017-08-21T12:27:31.159Z,44.60
2017-08-21T12:29:57.450Z,44.60
2017-08-21T12:32:23.772Z,44.10
2017-08-21T12:34:50.079Z,44.30
2017-08-21T12:37:16.418Z,46.00
2017-08-21T12:39:42.709Z,47.70
2017-08-21T12:42:08.984Z,49.00
2017-08-21T12:44:35.283Z,48.00
2017-08-21T12:47:01.614Z,48.20
2017-08-21T12:49:28.860Z,49.60
2017-08-21T12:51:57.037Z,49.80
2017-08-21T12:54:23.320Z,50.90
2017-08-21T12:56:49.630Z,51.80
2017-08-21T12:59:15.962Z,53.00
2017-08-21T13:01:42.233Z,53.60
2017-08-21T13:04:08.584Z,53.30
2017-08-21T13:06:34.875Z,54.10
2017-08-21T13:09:01.197Z,54.50
2017-08-21T13:11:27.535Z,54.60
2017-08-21T13:13:53.852Z,54.60
2017-08-21T13:16:20.139Z,54.80
2017-08-21T13:18:46.455Z,55.00
2017-08-21T13:21:12.748Z,54.60
2017-08-21T13:23:39.049Z,55.00
2017-08-21T13:26:05.350Z,53.90
2017-08-21T13:28:31.667Z,52.50
2017-08-21T13:30:57.983Z,53.00
2017-08-21T13:33:24.265Z,52.60
2017-08-21T13:35:50.593Z,52.70
2017-08-21T13:38:18.341Z,51.90
2017-08-21T13:40:44.643Z,52.30
2017-08-21T13:43:10.988Z,52.30
2017-08-21T13:45:37.885Z,52.40
2017-08-21T13:48:04.237Z,53.00
2017-08-21T13:50:31.383Z,52.00
2017-08-21T13:52:57.705Z,51.70
2017-08-21T13:55:24.003Z,48.90
2017-08-21T13:57:50.298Z,45.70
2017-08-21T14:00:16.620Z,42.60
2017-08-21T14:02:43.764Z,41.40
2017-08-21T14:05:10.057Z,39.90
2017-08-21T14:07:36.371Z,38.30
2017-08-21T14:10:02.684Z,36.70
2017-08-21T14:12:28.941Z,35.20
2017-08-21T14:14:55.922Z,33.30
2017-08-21T14:17:22.237Z,32.50
2017-08-21T14:19:48.898Z,32.30
2017-08-21T14:22:15.214Z,33.90
2017-08-21T14:24:41.503Z,37.00
2017-08-21T14:27:07.801Z,38.60
2017-08-21T14:29:34.116Z,38.10
2017-08-21T14:32:01.190Z,36.70
2017-08-21T14:34:30.442Z,35.20
2017-08-21T14:36:56.781Z,33.90
2017-08-21T14:39:23.071Z,32.80
2017-08-21T14:42:17.276Z,31.90
2017-08-21T14:44:43.586Z,31.20
2017-08-21T14:47:09.933Z,30.30
2017-08-21T14:49:36.828Z,30.00
2017-08-21T14:52:03.164Z,29.70
2017-08-21T14:54:29.870Z,29.10
2017-08-21T14:56:56.157Z,30.00
2017-08-21T14:59:22.473Z,32.70
2017-08-21T15:01:48.768Z,34.80
2017-08-21T15:04:16.125Z,35.50
2017-08-21T15:06:42.545Z,34.50
2017-08-21T15:09:11.924Z,33.20
2017-08-21T15:11:38.311Z,32.20
2017-08-21T15:14:05.587Z,31.80
2017-08-21T15:16:33.384Z,32.30
2017-08-21T15:18:59.700Z,32.30
2017-08-21T15:21:26.021Z,33.50
2017-08-21T15:23:52.349Z,35.20
2017-08-21T15:26:18.678Z,36.90
2017-08-21T15:28:44.961Z,38.50
2017-08-21T15:31:11.258Z,39.00
2017-08-21T15:33:37.604Z,38.90
2017-08-21T15:36:03.909Z,39.10
2017-08-21T15:38:30.226Z,38.80
2017-08-21T15:40:56.578Z,38.60
2017-08-21T15:43:22.856Z,39.10
2017-08-21T15:45:49.177Z,39.20
2017-08-21T15:48:15.509Z,38.70
2017-08-21T15:50:41.853Z,37.60
2017-08-21T15:53:08.164Z,36.30
2017-08-21T15:55:34.758Z,35.30
2017-08-21T15:58:01.075Z,35.00
2017-08-21T16:00:27.429Z,35.00
2017-08-21T16:02:53.756Z,34.90
2017-08-21T16:05:20.077Z,34.70
2017-08-21T16:07:46.399Z,34.40
2017-08-21T16:10:12.698Z,34.20
2017-08-21T16:12:39.107Z,34.10
2017-08-21T16:15:05.393Z,33.70
2017-08-21T16:17:31.727Z,33.70
2017-08-21T16:19:58.016Z,33.70
2017-08-21T16:22:24.316Z,33.20
2017-08-21T16:24:50.622Z,33.30
2017-08-21T16:27:17.939Z,33.80
2017-08-21T16:29:44.234Z,34.00
2017-08-21T16:32:10.545Z,34.00
2017-08-21T16:34:36.868Z,33.80
2017-08-21T16:37:03.154Z,33.30
2017-08-21T16:39:29.454Z,32.20
2017-08-21T16:41:55.752Z,31.30
2017-08-21T16:44:22.597Z,30.60
2017-08-21T16:46:48.878Z,29.80
2017-08-21T16:49:15.201Z,29.00
2017-08-21T16:51:41.481Z,28.50
2017-08-21T16:54:08.630Z,27.70
2017-08-21T16:56:34.952Z,27.10
2017-08-21T16:59:01.261Z,26.30
2017-08-21T17:01:27.623Z,25.70
2017-08-21T17:03:53.940Z,25.50
2017-08-21T17:06:20.253Z,25.30
2017-08-21T17:08:46.611Z,25.20
2017-08-21T17:11:12.894Z,25.00
2017-08-21T17:13:39.211Z,25.00
2017-08-21T17:16:06.070Z,24.90
2017-08-21T17:18:32.411Z,24.70
2017-08-21T17:20:58.683Z,24.50
2017-08-21T17:23:25.013Z,24.30
2017-08-21T17:25:51.453Z,24.10
2017-08-21T17:28:17.804Z,23.90
2017-08-21T17:30:44.090Z,23.70
2017-08-21T17:33:10.369Z,23.50
2017-08-21T17:35:36.679Z,23.30
2017-08-21T17:38:02.986Z,23.10
2017-08-21T17:40:29.314Z,23.00
2017-08-21T17:42:55.589Z,22.80
2017-08-21T17:45:21.907Z,22.60
2017-08-21T17:47:48.196Z,22.50
2017-08-21T17:50:14.512Z,22.30
2017-08-21T17:52:40.807Z,22.20
2017-08-21T17:55:07.105Z,22.00
2017-08-21T17:57:33.454Z,21.90
2017-08-21T17:59:59.770Z,21.80
2017-08-21T18:02:26.112Z,21.70
2017-08-21T18:04:52.400Z,21.60
2017-08-21T18:07:18.721Z,21.50
2017-08-21T18:09:45.646Z,21.30
2017-08-21T18:12:12.018Z,21.20
2017-08-21T18:14:38.309Z,21.10
2017-08-21T18:17:04.625Z,20.80
2017-08-21T18:19:30.909Z,20.70
2017-08-21T18:21:57.195Z,20.10
2017-08-21T18:24:23.526Z,20.00
2017-08-21T18:26:49.822Z,20.00
2017-08-21T18:29:16.179Z,19.90
2017-08-21T18:31:42.484Z,19.80
2017-08-21T18:34:08.803Z,19.70
2017-08-21T18:36:35.103Z,19.60
2017-08-21T18:39:01.411Z,19.60
2017-08-21T18:41:27.715Z,19.40
2017-08-21T18:43:54.901Z,19.30
2017-08-21T18:46:21.218Z,19.20
2017-08-21T18:48:47.537Z,19.00
2017-08-21T18:51:14.306Z,19.00
2017-08-21T18:53:40.636Z,18.90
2017-08-21T18:56:06.967Z,18.80
2017-08-21T18:58:33.319Z,18.70
2017-08-21T19:00:59.635Z,18.60
2017-08-21T19:03:25.938Z,18.60
2017-08-21T19:05:52.226Z,18.50
2017-08-21T19:08:18.547Z,18.40
2017-08-21T19:10:44.849Z,18.40
2017-08-21T19:13:12.521Z,18.40
2017-08-21T19:15:38.852Z,18.20
2017-08-21T19:18:05.160Z,18.20
2017-08-21T19:20:31.461Z,18.10
2017-08-21T19:22:58.685Z,18.00
2017-08-21T19:25:25.001Z,18.00
2017-08-21T19:27:51.281Z,17.90
2017-08-21T19:30:18.227Z,17.80
2017-08-21T19:32:44.534Z,17.70
2017-08-21T19:35:10.856Z,17.60
2017-08-21T19:37:37.189Z,17.40
2017-08-21T19:40:04.494Z,17.30
2017-08-21T19:42:30.782Z,17.20
2017-08-21T19:44:57.082Z,17.20
2017-08-21T19:47:23.407Z,17.20
2017-08-21T19:49:49.737Z,17.20
2017-08-21T19:52:16.059Z,17.20
2017-08-21T19:54:42.363Z,17.20
2017-08-21T19:57:08.681Z,17.20
2017-08-21T19:59:34.978Z,17.10
2017-08-21T20:02:01.685Z,16.90
2017-08-21T20:04:27.991Z,16.90
2017-08-21T20:06:54.316Z,16.80
2017-08-21T20:09:20.698Z,16.80
2017-08-21T20:11:47.007Z,16.80
2017-08-21T20:14:13.323Z,16.60
2017-08-21T20:16:40.537Z,16.40
2017-08-21T20:19:08.452Z,16.30
2017-08-21T20:21:34.791Z,16.30
2017-08-21T20:24:01.108Z,16.30
2017-08-21T20:26:27.420Z,16.40
2017-08-21T20:28:53.820Z,16.40
2017-08-21T20:31:20.225Z,16.40
2017-08-21T20:33:46.576Z,16.40
2017-08-21T20:36:14.179Z,16.30
2017-08-21T20:38:40.537Z,16.00
2017-08-21T20:41:06.874Z,16.10
2017-08-21T20:43:33.224Z,16.20
2017-08-21T20:45:59.519Z,16.20
2017-08-21T20:48:25.878Z,16.30
2017-08-21T20:50:52.227Z,16.30
2017-08-21T20:53:19.306Z,16.20
2017-08-21T20:55:46.588Z,16.10
2017-08-21T20:58:12.908Z,16.10
2017-08-21T21:00:39.995Z,16.00
2017-08-21T21:03:06.298Z,16.00
2017-08-21T21:05:32.597Z,15.90
2017-08-21T21:07:58.901Z,15.90
2017-08-21T21:10:25.222Z,15.80
2017-08-21T21:12:51.517Z,15.80
2017-08-21T21:15:17.820Z,15.80
2017-08-21T21:17:44.100Z,15.80
2017-08-21T21:20:10.670Z,15.70
2017-08-21T21:22:36.973Z,15.70
2017-08-21T21:25:03.287Z,15.70
2017-08-21T21:27:29.605Z,15.70
2017-08-21T21:29:55.899Z,15.50
2017-08-21T21:32:22.901Z,15.30
2017-08-21T21:34:49.186Z,15.30
2017-08-21T21:37:15.757Z,15.20
2017-08-21T21:39:42.045Z,15.30
2017-08-21T21:42:08.373Z,15.30
2017-08-21T21:44:38.099Z,15.20
2017-08-21T21:47:04.448Z,15.00
2017-08-21T21:49:30.738Z,14.90
2017-08-21T21:51:57.029Z,14.80
2017-08-21T21:54:23.320Z,14.80
2017-08-21T21:56:49.596Z,14.90
2017-08-21T21:59:15.900Z,14.90
2017-08-21T22:01:42.170Z,14.90
2017-08-21T22:04:08.510Z,15.00
2017-08-21T22:06:34.783Z,14.80
2017-08-21T22:09:01.145Z,14.60
2017-08-21T22:11:27.477Z,14.60
2017-08-21T22:13:53.771Z,14.70
2017-08-21T22:16:20.088Z,14.70
2017-08-21T22:18:46.362Z,14.60
2017-08-21T22:21:12.637Z,14.60
2017-08-21T22:23:38.919Z,14.60
2017-08-21T22:26:05.235Z,14.50
2017-08-21T22:28:31.511Z,14.60
2017-08-21T22:30:58.141Z,14.60
2017-08-21T22:33:24.445Z,14.60
2017-08-21T22:35:50.720Z,14.60
2017-08-21T22:38:17.019Z,14.60
2017-08-21T22:40:43.310Z,14.60
2017-08-21T22:43:09.615Z,14.60
2017-08-21T22:45:35.898Z,14.60
2017-08-21T22:48:02.198Z,14.60
2017-08-21T22:50:28.457Z,14.60
2017-08-21T22:52:54.768Z,14.50
2017-08-21T22:55:21.036Z,14.30
2017-08-21T22:57:47.678Z,14.30
2017-08-21T23:00:13.985Z,14.30
2017-08-21T23:02:40.270Z,14.40
2017-08-21T23:05:06.562Z,14.40
2017-08-21T23:07:33.435Z,14.40
2017-08-21T23:09:59.729Z,14.20
2017-08-21T23:12:25.988Z,14.20
2017-08-21T23:14:52.281Z,14.20
2017-08-21T23:17:18.557Z,14.20
2017-08-21T23:19:44.861Z,14.20
2017-08-21T23:22:11.915Z,14.20
2017-08-21T23:24:38.183Z,14.20
2017-08-21T23:27:04.437Z,14.20
2017-08-21T23:29:30.747Z,14.00
2017-08-21T23:31:57.046Z,14.00
2017-08-21T23:34:23.324Z,14.00
2017-08-21T23:36:49.622Z,14.00
2017-08-21T23:39:15.921Z,14.00
2017-08-21T23:41:42.196Z,13.90
2017-08-21T23:44:11.970Z,13.90
2017-08-21T23:46:39.868Z,14.00
2017-08-21T23:49:06.177Z,13.90
2017-08-21T23:51:32.426Z,13.80
2017-08-21T23:53:58.722Z,13.80
2017-08-21T23:56:25.003Z,13.80
2017-08-21T23:58:51.301Z,13.90
